Time;durP1;ratioP1;P1;durP2;ratioP2;P2;SDS_P1;SDS_P2;PMS_P1;PMS_P2;Temp;Humidity;BMP_temperature;BMP_pressure;BME280_temperature;BME280_humidity;BME280_pressure;Samples;Min_cycle;Max_cycle;Signal;HPM_P1;HPM_P2
2022/11/17 00:00:01;;;;;;;24.20;15.75;;;8.50;99.90;;;;;;5109477;27;20107;-67
2022/11/17 00:02:26;;;;;;;23.00;15.45;;;8.50;99.90;;;;;;5106370;27;20046;-67
2022/11/17 00:04:52;;;;;;;24.00;15.65;;;8.50;99.90;;;;;;5106925;27;20146;-67
2022/11/17 00:07:18;;;;;;;23.27;15.85;;;8.50;99.90;;;;;;5113753;27;20537;-67
2022/11/17 00:09:43;;;;;;;22.25;15.50;;;8.50;99.90;;;;;;5131210;27;20031;-66
2022/11/17 00:14:53;;;;;;;21.10;15.02;;;8.50;99.90;;;;;;5110567;27;20066;-66
2022/11/17 00:17:18;;;;;;;22.83;14.93;;;8.50;99.90;;;;;;5093506;27;20039;-68
2022/11/17 00:22:31;;;;;;;22.95;15.07;;;8.60;99.90;;;;;;5111668;27;20142;-67
2022/11/17 00:24:57;;;;;;;22.70;14.27;;;8.60;99.90;;;;;;5095141;27;20035;-67
2022/11/17 00:27:22;;;;;;;21.05;14.80;;;8.60;99.90;;;;;;5104202;27;20514;-67
2022/11/17 00:29:48;;;;;;;22.50;14.27;;;8.60;99.90;;;;;;5129207;27;20139;-66
2022/11/17 00:35:00;;;;;;;20.83;13.10;;;8.60;99.90;;;;;;5110645;27;20043;-67
2022/11/17 00:37:28;;;;;;;19.10;13.65;;;8.70;99.90;;;;;;5106844;27;20042;-67
2022/11/17 00:39:54;;;;;;;22.17;14.68;;;8.70;99.90;;;;;;5110106;27;20499;-67
2022/11/17 00:42:20;;;;;;;23.30;13.88;;;8.70;99.90;;;;;;5111027;27;20051;-68
2022/11/17 00:44:46;;;;;;;20.08;13.55;;;8.70;99.90;;;;;;5110841;27;20110;-66
2022/11/17 00:47:11;;;;;;;24.48;14.18;;;8.70;99.90;;;;;;5109572;27;20509;-67
2022/11/17 00:49:37;;;;;;;19.00;13.07;;;8.70;99.90;;;;;;5112579;27;20134;-66
2022/11/17 00:52:03;;;;;;;19.75;13.02;;;8.70;99.90;;;;;;5107368;27;20107;-68
2022/11/17 00:54:29;;;;;;;19.83;13.32;;;8.70;99.90;;;;;;5093077;27;20122;-67
2022/11/17 00:56:54;;;;;;;17.85;13.63;;;8.70;99.90;;;;;;5108659;27;20122;-67
2022/11/17 00:59:20;;;;;;;23.48;13.63;;;8.80;99.90;;;;;;5108965;27;20043;-67
2022/11/17 01:01:46;;;;;;;18.83;13.25;;;8.70;99.90;;;;;;5108560;27;20095;-66
2022/11/17 01:04:14;;;;;;;20.45;12.07;;;8.70;99.90;;;;;;5110947;27;20034;-67
2022/11/17 01:06:43;;;;;;;18.60;13.10;;;8.80;99.90;;;;;;5091867;27;20091;-67
2022/11/17 01:09:16;;;;;;;21.50;13.15;;;8.80;99.90;;;;;;5111042;27;20558;-67
2022/11/17 01:11:42;;;;;;;18.38;13.27;;;8.80;99.90;;;;;;5095463;27;20464;-66
2022/11/17 01:14:13;;;;;;;18.67;12.98;;;8.80;99.90;;;;;;5110905;27;20412;-67
2022/11/17 01:16:39;;;;;;;18.73;12.60;;;8.80;99.90;;;;;;5111678;27;20481;-66
2022/11/17 01:19:05;;;;;;;18.80;12.52;;;8.80;99.90;;;;;;5111517;27;20534;-65
2022/11/17 01:21:31;;;;;;;20.80;13.13;;;8.80;99.90;;;;;;5109781;28;20070;-66
2022/11/17 01:23:59;;;;;;;20.88;12.18;;;8.80;99.90;;;;;;5105481;27;20035;-67
2022/11/17 01:26:28;;;;;;;17.33;12.32;;;8.80;99.90;;;;;;5108604;27;20043;-66
2022/11/17 01:28:54;;;;;;;18.05;11.32;;;8.80;99.90;;;;;;5101036;28;20039;-66
2022/11/17 01:31:22;;;;;;;16.20;11.27;;;8.80;99.90;;;;;;5102765;28;20041;-67
2022/11/17 01:33:48;;;;;;;21.42;12.52;;;8.80;99.90;;;;;;5104593;28;20126;-67
2022/11/17 01:36:17;;;;;;;17.58;12.32;;;8.80;99.90;;;;;;5113188;28;20130;-66
2022/11/17 01:38:43;;;;;;;16.88;12.40;;;8.70;99.90;;;;;;5104003;28;20057;-67
2022/11/17 01:41:23;;;;;;;19.33;11.43;;;8.80;99.90;;;;;;5110833;28;20557;-66
2022/11/17 01:43:51;;;;;;;18.77;12.02;;;8.80;99.90;;;;;;5102980;28;20555;-67
2022/11/17 01:46:38;;;;;;;15.05;12.02;;;8.80;99.90;;;;;;5113027;28;20447;-67
2022/11/17 01:49:24;;;;;;;16.52;12.00;;;8.80;99.90;;;;;;5107306;28;20035;-66
2022/11/17 01:51:58;;;;;;;16.95;12.18;;;8.80;99.90;;;;;;5106232;28;20062;-66
2022/11/17 01:54:28;;;;;;;16.45;12.23;;;8.70;99.90;;;;;;5108903;28;20051;-66
2022/11/17 01:56:59;;;;;;;18.58;11.70;;;8.70;99.90;;;;;;5112008;28;20066;-67
2022/11/17 01:59:50;;;;;;;16.50;12.63;;;8.70;99.90;;;;;;5110887;28;20378;-67
2022/11/17 02:02:16;;;;;;;15.98;12.05;;;8.70;99.90;;;;;;5101191;28;20516;-66
2022/11/17 02:04:54;;;;;;;18.67;12.48;;;8.70;99.90;;;;;;5107039;27;20054;-67
2022/11/17 02:07:25;;;;;;;19.02;12.25;;;8.70;99.90;;;;;;5104889;28;20077;-67
2022/11/17 02:09:52;;;;;;;18.75;13.07;;;8.60;99.90;;;;;;5106845;28;20164;-66
2022/11/17 02:12:19;;;;;;;16.77;11.48;;;8.60;99.90;;;;;;5111214;28;20115;-66
2022/11/17 02:14:47;;;;;;;22.90;13.57;;;8.60;99.90;;;;;;5109742;27;20499;-67
2022/11/17 02:17:13;;;;;;;16.08;12.18;;;8.60;99.90;;;;;;5103983;28;20158;-66
2022/11/17 02:19:41;;;;;;;17.10;12.18;;;8.60;99.90;;;;;;5110039;28;20162;-68
2022/11/17 02:22:24;;;;;;;18.40;12.80;;;8.50;99.90;;;;;;5110592;28;20042;-67
2022/11/17 02:25:10;;;;;;;18.48;12.60;;;8.50;99.90;;;;;;5105700;28;20084;-66
2022/11/17 02:28:01;;;;;;;18.83;12.32;;;8.50;99.90;;;;;;5109308;28;20087;-66
2022/11/17 02:30:37;;;;;;;18.13;12.52;;;8.50;99.90;;;;;;5102497;28;20135;-67
2022/11/17 02:33:12;;;;;;;17.95;12.18;;;8.50;99.90;;;;;;5091909;28;20673;-66
2022/11/17 02:36:01;;;;;;;20.60;12.48;;;8.50;99.90;;;;;;5109559;28;20466;-67
2022/11/17 02:38:44;;;;;;;16.30;12.07;;;8.50;99.90;;;;;;5108642;28;20080;-67
2022/11/17 02:41:17;;;;;;;22.67;12.93;;;8.50;99.90;;;;;;5095079;28;20055;-67
2022/11/17 02:44:08;;;;;;;19.58;12.52;;;8.50;99.90;;;;;;5093320;28;20123;-68
2022/11/17 02:46:49;;;;;;;17.65;12.57;;;8.50;99.90;;;;;;4993731;28;20045;-67
2022/11/17 02:49:21;;;;;;;17.67;12.35;;;8.40;99.90;;;;;;5008383;28;20409;-67
2022/11/17 02:51:53;;;;;;;17.23;12.57;;;8.50;99.90;;;;;;5013781;28;20058;-66
2022/11/17 02:54:21;;;;;;;15.63;11.20;;;8.40;99.90;;;;;;5012912;28;20053;-67
2022/11/17 02:56:47;;;;;;;13.68;10.35;;;8.40;99.90;;;;;;5013425;28;20049;-66
2022/11/17 02:59:16;;;;;;;14.70;10.88;;;8.40;99.90;;;;;;5013686;28;20037;-68
2022/11/17 03:01:47;;;;;;;16.42;10.75;;;8.50;99.90;;;;;;5005313;28;20042;-67
2022/11/17 03:04:34;;;;;;;17.08;12.40;;;8.50;99.90;;;;;;5011924;28;20061;-67
2022/11/17 03:07:24;;;;;;;15.27;10.52;;;8.50;99.90;;;;;;5013916;28;20396;-66
2022/11/17 03:10:00;;;;;;;16.58;11.27;;;8.50;99.90;;;;;;5029241;28;20511;-66
2022/11/17 03:12:45;;;;;;;16.10;10.85;;;8.50;99.90;;;;;;5013389;28;20193;-66
2022/11/17 03:15:10;;;;;;;17.77;11.73;;;8.50;99.90;;;;;;4994026;28;20057;-67
2022/11/17 03:18:04;;;;;;;15.68;11.30;;;8.50;99.90;;;;;;5006468;28;20050;-66
2022/11/17 03:20:56;;;;;;;16.90;11.27;;;8.50;99.90;;;;;;5030135;28;20087;-66
2022/11/17 03:23:32;;;;;;;15.93;10.32;;;8.50;99.90;;;;;;5065867;27;20498;-67
2022/11/17 03:26:00;;;;;;;13.40;9.88;;;8.50;99.90;;;;;;5112961;27;20031;-69
2022/11/17 03:28:29;;;;;;;14.20;9.48;;;8.50;99.90;;;;;;5096084;27;20084;-66
2022/11/17 03:30:56;;;;;;;14.40;9.60;;;8.50;99.90;;;;;;5112408;27;20043;-67
2022/11/17 03:33:23;;;;;;;14.88;9.73;;;8.50;99.90;;;;;;5114292;27;20051;-68
2022/11/17 03:36:05;;;;;;;13.82;9.65;;;8.60;99.90;;;;;;5112922;27;20043;-66
2022/11/17 03:38:36;;;;;;;12.75;9.90;;;8.60;99.90;;;;;;5122764;27;20047;-66
2022/11/17 03:41:05;;;;;;;17.13;10.43;;;8.60;99.90;;;;;;5113081;27;20047;-68
2022/11/17 03:43:31;;;;;;;13.60;9.45;;;8.60;99.90;;;;;;5112845;27;20157;-66
2022/11/17 03:46:04;;;;;;;14.13;10.07;;;8.60;99.90;;;;;;5095076;27;20122;-66
2022/11/17 03:48:47;;;;;;;13.68;9.52;;;8.50;99.90;;;;;;5096498;27;20047;-67
2022/11/17 03:51:20;;;;;;;12.13;9.55;;;8.60;99.90;;;;;;5113856;27;20048;-68
2022/11/17 03:53:47;;;;;;;14.68;9.52;;;8.50;99.90;;;;;;5092774;27;20126;-67
2022/11/17 03:56:43;;;;;;;14.82;10.00;;;8.50;99.90;;;;;;5094810;27;20520;-67
2022/11/17 03:59:28;;;;;;;14.18;10.00;;;8.50;99.90;;;;;;5095614;27;20434;-67
2022/11/17 04:01:54;;;;;;;15.02;10.60;;;8.50;99.90;;;;;;5111233;27;20043;-67
2022/11/17 04:04:21;;;;;;;14.38;9.98;;;8.50;99.90;;;;;;5113630;27;20047;-67
2022/11/17 04:06:50;;;;;;;17.63;10.45;;;8.50;99.90;;;;;;5112711;27;20031;-67
2022/11/17 04:09:16;;;;;;;15.27;10.27;;;8.50;99.90;;;;;;5115556;27;20042;-67
2022/11/17 04:17:10;;;;;;;11.82;8.75;;;8.50;99.90;;;;;;5112915;27;20087;-67
2022/11/17 04:19:35;;;;;;;13.93;9.10;;;8.50;99.90;;;;;;5113177;27;20121;-67
2022/11/17 04:22:01;;;;;;;10.88;7.93;;;8.50;99.90;;;;;;5096115;27;20051;-67
2022/11/17 04:24:26;;;;;;;13.20;8.48;;;8.60;99.90;;;;;;5112467;27;20043;-67
2022/11/17 04:29:36;;;;;;;13.43;8.85;;;8.60;99.90;;;;;;5128818;27;20043;-67
2022/11/17 04:32:02;;;;;;;13.38;9.00;;;8.60;99.90;;;;;;5114023;27;20031;-66
2022/11/17 04:34:28;;;;;;;13.27;9.05;;;8.60;99.90;;;;;;5110447;27;20043;-66
2022/11/17 04:36:53;;;;;;;12.43;9.15;;;8.60;99.90;;;;;;5120287;27;20371;-67
2022/11/17 04:39:19;;;;;;;14.27;9.00;;;8.60;99.90;;;;;;5113675;27;20039;-67
2022/11/17 04:41:55;;;;;;;12.18;8.70;;;8.60;99.90;;;;;;5112815;27;20088;-67
2022/11/17 04:44:26;;;;;;;11.05;8.80;;;8.50;99.90;;;;;;5110895;27;20091;-67
2022/11/17 04:46:52;;;;;;;12.32;9.30;;;8.60;99.90;;;;;;5112509;27;20031;-67
2022/11/17 04:49:19;;;;;;;14.55;9.50;;;8.60;99.90;;;;;;5110303;27;20058;-67
2022/11/17 04:51:46;;;;;;;12.50;9.02;;;8.60;99.90;;;;;;5113122;27;20055;-67
2022/11/17 04:54:13;;;;;;;12.18;8.55;;;8.60;99.90;;;;;;5112014;27;20397;-68
2022/11/17 04:56:39;;;;;;;12.93;8.70;;;8.60;99.90;;;;;;5110796;27;20047;-67
2022/11/17 04:59:05;;;;;;;10.13;8.07;;;8.50;99.90;;;;;;5111761;27;20042;-67
2022/11/17 05:01:32;;;;;;;11.77;8.48;;;8.50;99.90;;;;;;5110937;27;20052;-67
2022/11/17 05:03:59;;;;;;;10.65;7.97;;;8.50;99.90;;;;;;5111031;27;20042;-67
2022/11/17 05:06:31;;;;;;;14.68;9.23;;;8.50;99.90;;;;;;5113124;27;20039;-67
2022/11/17 05:08:58;;;;;;;11.63;8.73;;;8.50;99.90;;;;;;5111251;27;20108;-67
2022/11/17 05:14:12;;;;;;;10.27;7.78;;;8.50;99.90;;;;;;5109292;27;20406;-67
2022/11/17 05:19:28;;;;;;;10.80;8.15;;;8.40;99.90;;;;;;5111605;27;20067;-67
2022/11/17 05:21:54;;;;;;;9.90;8.03;;;8.40;99.90;;;;;;5096250;28;20035;-67
2022/11/17 05:24:19;;;;;;;10.77;8.38;;;8.40;99.90;;;;;;5093894;27;20043;-67
2022/11/17 05:26:47;;;;;;;11.50;7.80;;;8.40;99.90;;;;;;5112641;27;20482;-66
2022/11/17 05:29:15;;;;;;;10.23;7.90;;;8.30;99.90;;;;;;5109158;28;20164;-67
2022/11/17 05:31:41;;;;;;;9.13;7.13;;;8.30;99.90;;;;;;5110895;28;20091;-66
2022/11/17 05:34:09;;;;;;;9.95;8.27;;;8.30;99.90;;;;;;5110803;27;20051;-67
2022/11/17 05:36:35;;;;;;;8.50;7.53;;;8.30;99.90;;;;;;5110759;28;20498;-67
2022/11/17 05:39:02;;;;;;;8.73;6.97;;;8.30;99.90;;;;;;5111562;28;20038;-67
2022/11/17 05:41:27;;;;;;;8.73;6.70;;;8.20;99.90;;;;;;5110532;28;20039;-66
2022/11/17 05:43:54;;;;;;;7.55;6.72;;;8.20;99.90;;;;;;5110976;28;20041;-67
2022/11/17 05:46:20;;;;;;;7.35;6.38;;;8.20;99.90;;;;;;5110784;28;20039;-67
2022/11/17 05:48:48;;;;;;;7.45;6.10;;;8.20;99.90;;;;;;5111916;28;20037;-66
2022/11/17 05:51:15;;;;;;;7.22;6.43;;;8.10;99.90;;;;;;5105118;28;20056;-67
2022/11/17 05:53:41;;;;;;;7.07;6.38;;;8.10;99.90;;;;;;5105380;28;20118;-67
2022/11/17 05:56:20;;;;;;;7.22;5.80;;;8.10;99.90;;;;;;5110116;28;20118;-66
2022/11/17 05:58:51;;;;;;;6.85;5.88;;;8.10;99.90;;;;;;5107301;28;20043;-68
2022/11/17 06:01:19;;;;;;;6.78;6.10;;;8.00;99.90;;;;;;5104526;28;20052;-67
2022/11/17 06:03:50;;;;;;;8.63;6.40;;;8.00;99.90;;;;;;5105612;28;20039;-67
2022/11/17 06:06:16;;;;;;;6.03;5.38;;;8.00;99.90;;;;;;5108680;28;20036;-67
2022/11/17 06:08:41;;;;;;;6.95;5.90;;;7.90;99.90;;;;;;5101413;28;20114;-67
2022/11/17 06:11:07;;;;;;;7.80;5.45;;;7.90;99.90;;;;;;5107826;28;20088;-67
2022/11/17 06:13:33;;;;;;;7.88;6.15;;;7.90;99.90;;;;;;5106558;28;20090;-67
2022/11/17 06:16:02;;;;;;;6.18;5.45;;;7.80;99.90;;;;;;5109015;28;20119;-67
2022/11/17 06:18:33;;;;;;;6.80;6.10;;;7.80;99.90;;;;;;5102283;28;20043;-67
2022/11/17 06:20:59;;;;;;;6.00;5.40;;;7.80;99.90;;;;;;5108858;28;20126;-67
2022/11/17 06:23:27;;;;;;;6.82;6.13;;;7.80;99.90;;;;;;5105576;28;20046;-67
2022/11/17 06:25:54;;;;;;;6.47;5.78;;;7.80;99.90;;;;;;5109351;28;20119;-67
2022/11/17 06:28:21;;;;;;;6.45;5.75;;;7.80;99.90;;;;;;5092486;28;20044;-68
2022/11/17 06:30:47;;;;;;;8.45;5.90;;;7.80;99.90;;;;;;5108058;28;20071;-67
2022/11/17 06:33:15;;;;;;;6.47;5.88;;;7.80;99.90;;;;;;5111188;28;20036;-67
2022/11/17 06:35:42;;;;;;;6.55;5.85;;;7.70;99.90;;;;;;5112433;28;20393;-69
2022/11/17 06:38:08;;;;;;;7.50;5.90;;;7.70;99.90;;;;;;5109838;28;20036;-67
2022/11/17 06:40:34;;;;;;;7.07;6.38;;;7.70;99.90;;;;;;5109239;28;20546;-67
2022/11/17 06:43:02;;;;;;;7.32;6.55;;;7.70;99.90;;;;;;5091745;28;20582;-67
2022/11/17 06:45:31;;;;;;;8.85;6.40;;;7.70;99.90;;;;;;5108456;28;20039;-66
2022/11/17 06:47:57;;;;;;;6.88;6.18;;;7.70;99.90;;;;;;5109767;28;20447;-67
2022/11/17 06:50:22;;;;;;;8.02;6.40;;;7.70;99.90;;;;;;5111704;28;20041;-67
2022/11/17 06:52:48;;;;;;;7.93;6.38;;;7.70;99.90;;;;;;5131963;27;20051;-67
2022/11/17 06:55:13;;;;;;;7.25;6.55;;;7.70;99.90;;;;;;5114556;27;20058;-67
2022/11/17 06:57:39;;;;;;;7.07;6.38;;;7.70;99.90;;;;;;5115922;27;20043;-66
2022/11/17 07:00:05;;;;;;;7.30;6.60;;;7.70;99.90;;;;;;5112383;27;20069;-67
2022/11/17 07:02:32;;;;;;;6.95;6.25;;;7.70;99.90;;;;;;5115662;27;20054;-67
2022/11/17 07:04:57;;;;;;;8.18;6.35;;;7.70;99.90;;;;;;5115343;27;20031;-67
2022/11/17 07:07:23;;;;;;;8.30;6.18;;;7.70;99.90;;;;;;5112379;27;20370;-68
2022/11/17 07:09:49;;;;;;;8.38;6.25;;;7.70;99.90;;;;;;5114300;27;20049;-66
2022/11/17 07:12:15;;;;;;;8.15;7.00;;;7.70;99.90;;;;;;5115162;27;20180;-66
2022/11/17 07:14:41;;;;;;;7.60;6.80;;;7.70;99.90;;;;;;5115150;27;20153;-66
2022/11/17 07:17:07;;;;;;;8.10;6.47;;;7.70;99.90;;;;;;5114590;27;20047;-67
2022/11/17 07:19:32;;;;;;;8.65;6.75;;;7.70;99.90;;;;;;5109939;27;20513;-66
2022/11/17 07:21:58;;;;;;;6.80;6.10;;;7.60;99.90;;;;;;5110852;27;20035;-66
2022/11/17 07:24:24;;;;;;;7.28;6.40;;;7.60;99.90;;;;;;5114526;27;20118;-66
2022/11/17 07:26:49;;;;;;;7.40;5.88;;;7.60;99.90;;;;;;5114690;27;20100;-67
2022/11/17 07:29:15;;;;;;;7.95;6.75;;;7.60;99.90;;;;;;5114346;27;20114;-66
2022/11/17 07:31:42;;;;;;;7.20;6.22;;;7.60;99.90;;;;;;5088865;27;20055;-66
2022/11/17 07:34:07;;;;;;;7.00;6.22;;;7.60;99.90;;;;;;5093848;27;20051;-66
2022/11/17 07:36:33;;;;;;;7.63;6.82;;;7.60;99.90;;;;;;5104815;27;20402;-66
2022/11/17 07:38:58;;;;;;;7.60;6.78;;;7.60;99.90;;;;;;5129339;27;20039;-66
2022/11/17 07:41:24;;;;;;;9.02;6.72;;;7.60;99.90;;;;;;5111411;27;20420;-66
2022/11/17 07:43:50;;;;;;;7.72;6.93;;;7.60;99.90;;;;;;5112328;27;20054;-67
2022/11/17 07:46:15;;;;;;;7.60;6.43;;;7.60;99.90;;;;;;5114904;27;20088;-66
2022/11/17 07:48:42;;;;;;;8.15;6.80;;;7.60;99.90;;;;;;5133085;27;20035;-67
2022/11/17 07:51:08;;;;;;;6.88;6.18;;;7.60;99.90;;;;;;5132757;27;20059;-66
2022/11/17 07:53:34;;;;;;;6.75;6.07;;;7.60;99.90;;;;;;5114416;27;20039;-67
2022/11/17 07:56:04;;;;;;;6.70;5.72;;;7.60;99.90;;;;;;5114584;27;20034;-66
2022/11/17 07:58:30;;;;;;;7.22;6.32;;;7.70;99.90;;;;;;5113971;27;20043;-66
2022/11/17 08:00:55;;;;;;;6.90;6.20;;;7.60;99.90;;;;;;5114282;27;20114;-68
2022/11/17 08:03:21;;;;;;;7.57;6.30;;;7.60;99.90;;;;;;5115118;27;20039;-67
2022/11/17 08:05:47;;;;;;;6.28;5.43;;;7.60;99.90;;;;;;5114663;27;20035;-66
2022/11/17 08:08:12;;;;;;;6.05;5.45;;;7.60;99.90;;;;;;5114798;27;20035;-67
2022/11/17 08:10:38;;;;;;;8.82;6.00;;;7.60;99.90;;;;;;5114427;27;20122;-67
2022/11/17 08:13:05;;;;;;;6.30;5.70;;;7.60;99.90;;;;;;5114847;27;20114;-67
2022/11/17 08:15:30;;;;;;;7.50;6.57;;;7.60;99.90;;;;;;5114281;27;20043;-67
2022/11/17 08:17:58;;;;;;;7.30;6.00;;;7.60;99.90;;;;;;5097540;27;20035;-67
2022/11/17 08:20:26;;;;;;;6.82;5.60;;;7.60;99.90;;;;;;5114329;27;20091;-67
2022/11/17 08:22:52;;;;;;;6.43;5.82;;;7.60;99.90;;;;;;5114413;27;20481;-67
2022/11/17 08:25:20;;;;;;;7.70;6.00;;;7.60;99.90;;;;;;5114389;27;20067;-67
2022/11/17 08:27:47;;;;;;;6.60;5.90;;;7.60;99.90;;;;;;5114382;27;20043;-67
2022/11/17 08:30:13;;;;;;;6.18;5.57;;;7.70;99.90;;;;;;5096973;27;20054;-67
2022/11/17 08:32:50;;;;;;;6.82;5.57;;;7.70;99.90;;;;;;5114064;27;20043;-66
2022/11/17 08:35:16;;;;;;;6.85;5.22;;;7.70;99.90;;;;;;5097013;27;20529;-66
2022/11/17 08:37:42;;;;;;;7.00;6.15;;;7.70;99.90;;;;;;5132349;27;20035;-67
2022/11/17 08:40:08;;;;;;;6.90;5.60;;;7.70;99.90;;;;;;5114380;27;20035;-67
2022/11/17 08:42:34;;;;;;;6.95;5.85;;;7.70;99.90;;;;;;5113817;27;20053;-67
2022/11/17 08:44:59;;;;;;;4.18;3.60;;;7.70;99.90;;;;;;5113916;27;20122;-67
2022/11/17 08:47:25;;;;;;;8.13;6.70;;;7.70;99.90;;;;;;5113953;27;20114;-68
2022/11/17 08:49:51;;;;;;;6.00;5.40;;;7.70;99.90;;;;;;5096709;27;20055;-68
2022/11/17 08:52:18;;;;;;;6.07;5.47;;;7.80;99.90;;;;;;5096716;27;20046;-67
2022/11/17 08:54:44;;;;;;;9.32;5.68;;;7.80;99.90;;;;;;5096588;27;20136;-66
2022/11/17 08:57:09;;;;;;;5.75;5.15;;;7.80;99.90;;;;;;5113465;27;20051;-66
2022/11/17 08:59:35;;;;;;;7.47;6.05;;;7.80;99.90;;;;;;5113767;27;20549;-66
2022/11/17 09:02:01;;;;;;;7.00;6.07;;;7.90;99.90;;;;;;5113481;27;20042;-67
2022/11/17 09:04:26;;;;;;;7.40;5.60;;;7.80;99.90;;;;;;5113983;27;20050;-67
2022/11/17 09:06:52;;;;;;;8.48;5.47;;;7.90;99.90;;;;;;5113278;27;20039;-67
2022/11/17 09:09:18;;;;;;;7.50;6.35;;;7.90;99.90;;;;;;5113917;27;20055;-66
2022/11/17 09:11:43;;;;;;;5.82;5.20;;;7.90;99.90;;;;;;5113446;27;20046;-66
2022/11/17 09:14:09;;;;;;;5.80;5.18;;;8.00;99.90;;;;;;5113496;27;20050;-67
2022/11/17 09:16:35;;;;;;;6.75;5.50;;;8.00;99.90;;;;;;5113581;27;20047;-67
2022/11/17 09:19:01;;;;;;;7.70;6.80;;;8.00;99.90;;;;;;5113091;27;20393;-67
2022/11/17 09:21:28;;;;;;;6.85;6.15;;;8.00;99.90;;;;;;5113510;27;20139;-66
2022/11/17 09:23:54;;;;;;;8.85;6.45;;;8.00;99.90;;;;;;5131464;27;20035;-67
2022/11/17 09:26:20;;;;;;;6.53;5.93;;;8.00;99.90;;;;;;5113533;27;20043;-67
2022/11/17 09:28:46;;;;;;;8.35;6.00;;;8.00;99.90;;;;;;5096113;27;20051;-67
2022/11/17 09:31:17;;;;;;;10.43;6.43;;;8.00;99.90;;;;;;5096531;27;20363;-67
2022/11/17 09:33:43;;;;;;;7.43;5.88;;;8.00;99.90;;;;;;5113148;28;20035;-67
2022/11/17 09:36:09;;;;;;;6.68;5.97;;;8.10;99.90;;;;;;5113176;28;20108;-67
2022/11/17 09:38:36;;;;;;;7.40;5.80;;;8.10;99.90;;;;;;5113250;28;20078;-67
2022/11/17 09:41:41;;;;;;;8.52;6.32;;;8.10;99.90;;;;;;5113350;28;20122;-66
2022/11/17 09:44:25;;;;;;;6.95;5.90;;;8.10;99.90;;;;;;5092035;28;20057;-67
2022/11/17 09:47:05;;;;;;;7.65;5.85;;;8.20;99.90;;;;;;5112837;28;20176;-66
2022/11/17 09:49:54;;;;;;;7.90;5.47;;;8.20;99.90;;;;;;5113099;28;20488;-67
2022/11/17 09:53:07;;;;;;;7.07;5.50;;;8.20;99.90;;;;;;5112945;28;20054;-67
2022/11/17 09:55:39;;;;;;;5.90;5.30;;;8.30;99.90;;;;;;4996484;28;20488;-67
2022/11/17 09:58:24;;;;;;;7.15;5.70;;;8.30;99.90;;;;;;5010406;28;20080;-67
2022/11/17 10:00:51;;;;;;;7.20;5.80;;;8.30;99.90;;;;;;5014044;28;20467;-66
2022/11/17 10:03:21;;;;;;;6.47;5.78;;;8.30;99.90;;;;;;5015495;28;20112;-66
2022/11/17 10:05:48;;;;;;;6.15;5.55;;;8.30;99.90;;;;;;5015556;28;20145;-66
2022/11/17 10:08:18;;;;;;;7.65;5.43;;;8.40;99.90;;;;;;5015658;28;20119;-67
2022/11/17 10:10:49;;;;;;;6.85;5.28;;;8.40;99.90;;;;;;4998982;28;20038;-68
2022/11/17 10:13:23;;;;;;;7.70;5.68;;;8.40;99.90;;;;;;5015281;28;20049;-67
2022/11/17 10:16:12;;;;;;;5.88;4.85;;;8.50;99.90;;;;;;5015129;28;20037;-67
2022/11/17 10:18:38;;;;;;;7.82;4.95;;;8.50;99.90;;;;;;5015530;28;20107;-66
2022/11/17 10:21:05;;;;;;;6.22;4.93;;;8.60;99.90;;;;;;5014710;28;20080;-67
2022/11/17 10:23:41;;;;;;;6.60;4.90;;;8.60;99.90;;;;;;5031876;28;20116;-66
2022/11/17 10:26:10;;;;;;;5.15;4.65;;;8.60;99.90;;;;;;5014867;28;20056;-67
2022/11/17 10:28:36;;;;;;;6.05;4.78;;;8.70;99.90;;;;;;5015349;28;20049;-66
2022/11/17 10:31:13;;;;;;;6.70;4.82;;;8.70;99.90;;;;;;5035210;27;20044;-67
2022/11/17 10:33:47;;;;;;;5.47;4.75;;;8.80;99.90;;;;;;5116552;27;20046;-67
2022/11/17 10:36:27;;;;;;;7.40;5.22;;;8.90;99.90;;;;;;5099515;27;20035;-68
2022/11/17 10:38:55;;;;;;;7.38;4.75;;;9.00;99.90;;;;;;5116350;27;20034;-67
2022/11/17 10:41:44;;;;;;;6.63;4.68;;;9.00;99.90;;;;;;5116472;27;20311;-66
2022/11/17 10:44:18;;;;;;;6.28;4.43;;;9.10;99.90;;;;;;5099077;27;20133;-66
2022/11/17 10:47:03;;;;;;;5.97;4.72;;;9.20;99.90;;;;;;5116594;27;20050;-68
2022/11/17 10:49:33;;;;;;;6.80;4.38;;;9.20;99.90;;;;;;5116395;27;20389;-67
2022/11/17 10:52:05;;;;;;;5.88;3.70;;;9.30;99.90;;;;;;5115818;27;20497;-66
2022/11/17 10:54:30;;;;;;;6.25;3.58;;;9.30;99.90;;;;;;5099352;27;20152;-67
2022/11/17 10:56:59;;;;;;;6.90;4.18;;;9.40;99.90;;;;;;5115931;27;20122;-67
2022/11/17 10:59:31;;;;;;;7.22;4.00;;;9.40;99.90;;;;;;5115985;27;20072;-68
2022/11/17 11:01:57;;;;;;;7.07;3.95;;;9.50;99.90;;;;;;5115889;27;20043;-67
2022/11/17 11:04:32;;;;;;;5.47;2.45;;;9.60;99.90;;;;;;5098831;27;20054;-67
2022/11/17 11:07:19;;;;;;;4.68;2.60;;;9.60;99.90;;;;;;5116081;27;20027;-67
2022/11/17 11:10:17;;;;;;;6.57;3.75;;;9.70;99.90;;;;;;5115789;27;20046;-66
2022/11/17 11:13:10;;;;;;;4.90;3.17;;;9.70;99.90;;;;;;5116053;27;20489;-67
2022/11/17 11:15:35;;;;;;;;;;;9.80;99.90;;;;;;5099455;27;20050;-66
2022/11/17 11:18:04;;;;;;;6.97;3.25;;;9.80;99.90;;;;;;5115538;27;20020;-67
2022/11/17 11:21:03;;;;;;;5.40;3.20;;;9.90;99.90;;;;;;5115945;27;20056;-67
2022/11/17 11:24:00;;;;;;;4.75;2.30;;;9.90;99.90;;;;;;5098167;27;20043;-66
2022/11/17 11:26:54;;;;;;;4.13;2.17;;;9.90;99.90;;;;;;5115695;27;20041;-67
2022/11/17 11:29:53;;;;;;;3.63;2.03;;;9.90;99.90;;;;;;5115276;27;20435;-66
2022/11/17 11:32:23;;;;;;;4.22;1.98;;;10.00;99.90;;;;;;5097961;27;20050;-66
2022/11/17 11:34:49;;;;;;;6.18;2.65;;;10.00;99.90;;;;;;5115755;27;20035;-67
2022/11/17 11:37:15;;;;;;;10.35;4.90;;;10.00;99.90;;;;;;5115126;27;20382;-67
2022/11/17 11:40:02;;;;;;;3.10;1.70;;;10.00;99.90;;;;;;5115570;27;20129;-67
2022/11/17 11:42:47;;;;;;;5.93;1.77;;;10.00;99.90;;;;;;5097723;27;20047;-67
2022/11/17 11:45:37;;;;;;;4.72;1.50;;;10.00;99.90;;;;;;5115013;27;20042;-67
2022/11/17 11:48:15;;;;;;;4.70;1.60;;;10.00;99.90;;;;;;5115473;27;20593;-67
2022/11/17 11:50:52;;;;;;;1.63;1.27;;;10.10;99.90;;;;;;5115213;27;20023;-66
2022/11/17 11:53:23;;;;;;;4.63;1.33;;;10.10;99.90;;;;;;5114656;27;20058;-67
2022/11/17 11:56:07;;;;;;;3.08;1.20;;;10.10;99.90;;;;;;5133479;27;20061;-67
2022/11/17 11:58:36;;;;;;;3.15;1.00;;;10.20;99.90;;;;;;5114990;27;20108;-67
2022/11/17 12:01:08;;;;;;;3.10;1.23;;;10.20;99.90;;;;;;5097568;27;20474;-66
2022/11/17 12:03:47;;;;;;;2.97;0.93;;;10.20;99.90;;;;;;5114919;27;20401;-67
2022/11/17 12:06:41;;;;;;;3.75;1.15;;;10.20;99.90;;;;;;5115113;27;20517;-67
2022/11/17 12:09:21;;;;;;;1.85;1.00;;;10.20;99.90;;;;;;5115249;27;20087;-67
2022/11/17 12:12:00;;;;;;;3.88;1.35;;;10.20;99.90;;;;;;5114690;27;20822;-68
2022/11/17 12:14:32;;;;;;;6.20;1.60;;;10.10;99.90;;;;;;5114437;27;20047;-67
2022/11/17 12:17:11;;;;;;;1.90;1.10;;;10.20;99.90;;;;;;5097799;27;20180;-67
2022/11/17 12:19:43;;;;;;;3.10;0.93;;;10.20;99.90;;;;;;5114407;27;20039;-67
2022/11/17 12:22:21;;;;;;;4.30;0.90;;;10.10;99.90;;;;;;5113969;27;20042;-66
2022/11/17 12:24:47;;;;;;;1.65;0.70;;;10.10;99.90;;;;;;5114704;27;20453;-67
2022/11/17 12:27:35;;;;;;;4.30;0.95;;;10.10;99.90;;;;;;5114245;27;20062;-67
2022/11/17 12:30:05;;;;;;;3.78;1.08;;;10.10;99.90;;;;;;5012853;28;20045;-67
2022/11/17 12:32:42;;;;;;;4.10;0.82;;;10.10;99.90;;;;;;5012526;28;20153;-66
2022/11/17 12:35:25;;;;;;;3.17;0.80;;;10.10;99.90;;;;;;4996585;28;20075;-66
2022/11/17 12:38:18;;;;;;;4.60;1.00;;;10.10;99.90;;;;;;5012871;28;20120;-67
2022/11/17 12:40:49;;;;;;;3.47;1.05;;;10.10;99.90;;;;;;4996040;28;20046;-67
2022/11/17 12:43:15;;;;;;;6.28;0.90;;;10.10;99.90;;;;;;4996145;28;20050;-67
2022/11/17 12:45:58;;;;;;;4.80;1.23;;;10.10;99.90;;;;;;5012733;28;20052;-66
2022/11/17 12:48:36;;;;;;;2.38;1.00;;;10.10;99.90;;;;;;4996117;28;20052;-67
2022/11/17 12:51:20;;;;;;;4.90;1.23;;;10.10;99.90;;;;;;5012500;28;20033;-67
2022/11/17 12:53:54;;;;;;;5.93;1.40;;;10.10;99.90;;;;;;5012025;28;20123;-68
2022/11/17 12:56:30;;;;;;;5.20;1.02;;;10.10;99.90;;;;;;5012206;28;20052;-67
2022/11/17 12:59:34;;;;;;;3.63;1.15;;;10.10;99.90;;;;;;5012351;28;20038;-66
2022/11/17 13:02:27;;;;;;;3.03;1.10;;;10.10;99.90;;;;;;4953556;28;20051;-67
2022/11/17 13:05:03;;;;;;;3.22;1.85;;;10.10;99.90;;;;;;4953865;28;20183;-68
2022/11/17 13:07:29;;;;;;;6.22;1.67;;;10.10;99.90;;;;;;5001773;28;20045;-67
2022/11/17 13:09:57;;;;;;;2.35;1.02;;;10.10;99.90;;;;;;5031946;28;20039;-67
2022/11/17 13:12:27;;;;;;;4.45;1.25;;;10.10;99.90;;;;;;5032122;28;20531;-66
2022/11/17 13:14:58;;;;;;;4.15;1.17;;;10.10;99.90;;;;;;5031523;28;20135;-67
2022/11/17 13:17:40;;;;;;;4.03;1.50;;;10.10;99.90;;;;;;5031883;28;20180;-67
2022/11/17 13:20:26;;;;;;;5.85;1.50;;;10.10;99.90;;;;;;5048478;28;20060;-66
2022/11/17 13:22:58;;;;;;;5.97;1.50;;;10.10;99.90;;;;;;5031208;28;20041;-67
2022/11/17 13:25:24;;;;;;;;;;;10.10;99.90;;;;;;5015932;28;20461;-66
2022/11/17 13:27:49;;;;;;;3.00;1.08;;;10.10;99.90;;;;;;5030883;28;20011;-67
2022/11/17 13:30:26;;;;;;;3.83;1.73;;;10.10;99.90;;;;;;5031666;28;20116;-67
2022/11/17 13:32:53;;;;;;;3.08;1.40;;;10.20;99.90;;;;;;5031591;28;20563;-68